sensor_id;sensor_type;location;lat;lon;timestamp;P1;durP1;ratioP1;P2;durP2;ratioP2
42420;SDS011;28063;48.140;11.588;2022-08-19T00:02:05;7.22;;;4.53;;
42420;SDS011;28063;48.140;11.588;2022-08-19T00:04:42;3.47;;;3.20;;
42420;SDS011;28063;48.140;11.588;2022-08-19T00:07:12;3.40;;;3.10;;
42420;SDS011;28063;48.140;11.588;2022-08-19T00:09:47;4.10;;;3.80;;
42420;SDS011;28063;48.140;11.588;2022-08-19T00:12:15;3.70;;;3.40;;
42420;SDS011;28063;48.140;11.588;2022-08-19T00:14:41;3.28;;;2.95;;
42420;SDS011;28063;48.140;11.588;2022-08-19T00:17:07;5.28;;;3.88;;
42420;SDS011;28063;48.140;11.588;2022-08-19T00:19:35;6.07;;;4.53;;
42420;SDS011;28063;48.140;11.588;2022-08-19T00:22:04;3.85;;;3.55;;
42420;SDS011;28063;48.140;11.588;2022-08-19T00:24:40;4.53;;;4.13;;
42420;SDS011;28063;48.140;11.588;2022-08-19T00:27:17;5.00;;;4.50;;
42420;SDS011;28063;48.140;11.588;2022-08-19T00:29:59;5.40;;;4.90;;
42420;SDS011;28063;48.140;11.588;2022-08-19T00:39:45;4.47;;;4.05;;
42420;SDS011;28063;48.140;11.588;2022-08-19T00:42:22;5.00;;;4.50;;
42420;SDS011;28063;48.140;11.588;2022-08-19T00:44:53;4.90;;;4.50;;
42420;SDS011;28063;48.140;11.588;2022-08-19T00:47:19;4.95;;;4.55;;
42420;SDS011;28063;48.140;11.588;2022-08-19T00:49:55;5.88;;;5.35;;
42420;SDS011;28063;48.140;11.588;2022-08-19T00:52:26;5.70;;;5.15;;
42420;SDS011;28063;48.140;11.588;2022-08-19T00:54:57;6.00;;;5.47;;
42420;SDS011;28063;48.140;11.588;2022-08-19T00:57:32;5.65;;;5.13;;
42420;SDS011;28063;48.140;11.588;2022-08-19T01:00:08;6.13;;;5.63;;
42420;SDS011;28063;48.140;11.588;2022-08-19T01:02:48;6.35;;;5.75;;
42420;SDS011;28063;48.140;11.588;2022-08-19T01:05:19;7.03;;;6.43;;
42420;SDS011;28063;48.140;11.588;2022-08-19T01:08:04;6.72;;;6.13;;
42420;SDS011;28063;48.140;11.588;2022-08-19T01:11:14;8.23;;;7.28;;
42420;SDS011;28063;48.140;11.588;2022-08-19T01:14:17;7.25;;;5.80;;
42420;SDS011;28063;48.140;11.588;2022-08-19T01:16:47;7.38;;;6.72;;
42420;SDS011;28063;48.140;11.588;2022-08-19T01:25:04;8.90;;;7.10;;
42420;SDS011;28063;48.140;11.588;2022-08-19T01:27:48;9.35;;;7.85;;
42420;SDS011;28063;48.140;11.588;2022-08-19T01:33:33;7.25;;;6.55;;
42420;SDS011;28063;48.140;11.588;2022-08-19T01:36:15;7.40;;;6.70;;
42420;SDS011;28063;48.140;11.588;2022-08-19T01:42:16;8.73;;;7.82;;
42420;SDS011;28063;48.140;11.588;2022-08-19T01:44:50;9.10;;;6.70;;
42420;SDS011;28063;48.140;11.588;2022-08-19T01:47:30;6.75;;;6.15;;
42420;SDS011;28063;48.140;11.588;2022-08-19T03:26:10;6.10;;;5.60;;
42420;SDS011;28063;48.140;11.588;2022-08-19T03:28:36;5.13;;;4.63;;
42420;SDS011;28063;48.140;11.588;2022-08-19T03:31:03;5.97;;;5.38;;
42420;SDS011;28063;48.140;11.588;2022-08-19T03:33:33;5.40;;;4.90;;
42420;SDS011;28063;48.140;11.588;2022-08-19T03:36:10;5.57;;;5.07;;
42420;SDS011;28063;48.140;11.588;2022-08-19T03:38:44;5.35;;;4.60;;
42420;SDS011;28063;48.140;11.588;2022-08-19T03:41:13;5.72;;;5.15;;
42420;SDS011;28063;48.140;11.588;2022-08-19T03:43:43;5.60;;;5.10;;
42420;SDS011;28063;48.140;11.588;2022-08-19T03:46:15;4.88;;;4.47;;
42420;SDS011;28063;48.140;11.588;2022-08-19T03:48:46;5.00;;;4.55;;
42420;SDS011;28063;48.140;11.588;2022-08-19T03:51:15;4.00;;;3.70;;
42420;SDS011;28063;48.140;11.588;2022-08-19T03:53:48;4.57;;;4.00;;
42420;SDS011;28063;48.140;11.588;2022-08-19T03:56:14;3.28;;;2.97;;
42420;SDS011;28063;48.140;11.588;2022-08-19T03:58:40;5.22;;;4.70;;
42420;SDS011;28063;48.140;11.588;2022-08-19T04:01:07;5.43;;;4.93;;
42420;SDS011;28063;48.140;11.588;2022-08-19T04:03:38;6.40;;;5.30;;
42420;SDS011;28063;48.140;11.588;2022-08-19T04:08:37;5.65;;;5.10;;
42420;SDS011;28063;48.140;11.588;2022-08-19T04:11:11;5.70;;;5.20;;
42420;SDS011;28063;48.140;11.588;2022-08-19T04:13:38;6.72;;;4.97;;
42420;SDS011;28063;48.140;11.588;2022-08-19T04:16:04;4.90;;;4.38;;
42420;SDS011;28063;48.140;11.588;2022-08-19T04:18:31;6.50;;;5.90;;
42420;SDS011;28063;48.140;11.588;2022-08-19T04:20:58;5.50;;;5.00;;
42420;SDS011;28063;48.140;11.588;2022-08-19T04:23:24;5.05;;;4.57;;
42420;SDS011;28063;48.140;11.588;2022-08-19T04:25:53;7.00;;;6.30;;
42420;SDS011;28063;48.140;11.588;2022-08-19T04:28:19;6.32;;;5.40;;
42420;SDS011;28063;48.140;11.588;2022-08-19T04:30:45;9.13;;;7.60;;
42420;SDS011;28063;48.140;11.588;2022-08-19T04:33:13;7.93;;;7.07;;
42420;SDS011;28063;48.140;11.588;2022-08-19T04:35:42;9.80;;;7.70;;
42420;SDS011;28063;48.140;11.588;2022-08-19T04:38:10;7.90;;;7.15;;
42420;SDS011;28063;48.140;11.588;2022-08-19T04:40:43;8.05;;;6.93;;
42420;SDS011;28063;48.140;11.588;2022-08-19T04:43:29;6.75;;;6.07;;
42420;SDS011;28063;48.140;11.588;2022-08-19T04:45:55;7.95;;;6.20;;
42420;SDS011;28063;48.140;11.588;2022-08-19T04:48:21;7.28;;;6.38;;
42420;SDS011;28063;48.140;11.588;2022-08-19T04:50:51;6.57;;;5.97;;
42420;SDS011;28063;48.140;11.588;2022-08-19T04:53:22;5.47;;;4.97;;
42420;SDS011;28063;48.140;11.588;2022-08-19T04:55:53;6.03;;;5.53;;
42420;SDS011;28063;48.140;11.588;2022-08-19T04:58:24;7.35;;;6.28;;
42420;SDS011;28063;48.140;11.588;2022-08-19T05:00:51;6.07;;;5.47;;
42420;SDS011;28063;48.140;11.588;2022-08-19T05:03:17;5.32;;;4.82;;
42420;SDS011;28063;48.140;11.588;2022-08-19T05:05:43;9.05;;;6.93;;
42420;SDS011;28063;48.140;11.588;2022-08-19T05:08:10;6.97;;;6.15;;
42420;SDS011;28063;48.140;11.588;2022-08-19T05:10:37;5.60;;;5.03;;
42420;SDS011;28063;48.140;11.588;2022-08-19T05:13:04;6.93;;;5.70;;
42420;SDS011;28063;48.140;11.588;2022-08-19T05:15:30;5.65;;;5.10;;
42420;SDS011;28063;48.140;11.588;2022-08-19T05:17:56;7.25;;;6.30;;
42420;SDS011;28063;48.140;11.588;2022-08-19T05:20:44;6.60;;;5.80;;
42420;SDS011;28063;48.140;11.588;2022-08-19T05:23:31;6.40;;;5.60;;
42420;SDS011;28063;48.140;11.588;2022-08-19T05:25:56;8.32;;;7.53;;
42420;SDS011;28063;48.140;11.588;2022-08-19T05:28:22;8.68;;;6.53;;
42420;SDS011;28063;48.140;11.588;2022-08-19T05:30:48;7.75;;;6.85;;
42420;SDS011;28063;48.140;11.588;2022-08-19T05:33:15;6.72;;;5.82;;
42420;SDS011;28063;48.140;11.588;2022-08-19T05:35:42;8.05;;;6.45;;
42420;SDS011;28063;48.140;11.588;2022-08-19T05:38:09;12.13;;;7.70;;
42420;SDS011;28063;48.140;11.588;2022-08-19T05:40:36;7.28;;;6.57;;
42420;SDS011;28063;48.140;11.588;2022-08-19T05:43:04;8.68;;;7.32;;
42420;SDS011;28063;48.140;11.588;2022-08-19T05:45:30;7.07;;;6.38;;
42420;SDS011;28063;48.140;11.588;2022-08-19T05:47:56;8.00;;;7.20;;
42420;SDS011;28063;48.140;11.588;2022-08-19T05:50:23;9.60;;;8.43;;
42420;SDS011;28063;48.140;11.588;2022-08-19T05:52:51;9.98;;;8.68;;
42420;SDS011;28063;48.140;11.588;2022-08-19T05:55:17;10.70;;;9.60;;
42420;SDS011;28063;48.140;11.588;2022-08-19T05:57:45;10.13;;;9.13;;
42420;SDS011;28063;48.140;11.588;2022-08-19T06:00:12;11.32;;;8.35;;
42420;SDS011;28063;48.140;11.588;2022-08-19T06:02:38;9.25;;;7.10;;
42420;SDS011;28063;48.140;11.588;2022-08-19T06:05:08;8.70;;;7.80;;
42420;SDS011;28063;48.140;11.588;2022-08-19T06:07:34;10.60;;;8.10;;
42420;SDS011;28063;48.140;11.588;2022-08-19T06:10:02;10.27;;;9.15;;
42420;SDS011;28063;48.140;11.588;2022-08-19T06:12:32;13.52;;;12.18;;
42420;SDS011;28063;48.140;11.588;2022-08-19T06:15:04;11.00;;;9.77;;
42420;SDS011;28063;48.140;11.588;2022-08-19T06:17:32;11.63;;;9.75;;
42420;SDS011;28063;48.140;11.588;2022-08-19T06:19:59;11.23;;;10.13;;
42420;SDS011;28063;48.140;11.588;2022-08-19T06:22:26;10.60;;;9.50;;
42420;SDS011;28063;48.140;11.588;2022-08-19T06:24:52;8.95;;;8.05;;
42420;SDS011;28063;48.140;11.588;2022-08-19T06:27:19;8.52;;;7.72;;
42420;SDS011;28063;48.140;11.588;2022-08-19T06:29:45;8.65;;;7.85;;
42420;SDS011;28063;48.140;11.588;2022-08-19T06:32:12;9.98;;;8.98;;
42420;SDS011;28063;48.140;11.588;2022-08-19T06:34:40;10.55;;;9.52;;
42420;SDS011;28063;48.140;11.588;2022-08-19T06:37:06;10.93;;;9.00;;
42420;SDS011;28063;48.140;11.588;2022-08-19T06:39:35;9.13;;;8.23;;
42420;SDS011;28063;48.140;11.588;2022-08-19T06:42:06;9.57;;;8.52;;
42420;SDS011;28063;48.140;11.588;2022-08-19T06:44:35;10.13;;;9.07;;
42420;SDS011;28063;48.140;11.588;2022-08-19T06:47:06;11.57;;;10.38;;
42420;SDS011;28063;48.140;11.588;2022-08-19T06:49:36;12.18;;;10.23;;
42420;SDS011;28063;48.140;11.588;2022-08-19T06:52:02;10.20;;;9.20;;
42420;SDS011;28063;48.140;11.588;2022-08-19T06:54:34;11.65;;;10.48;;
42420;SDS011;28063;48.140;11.588;2022-08-19T06:57:01;11.02;;;9.63;;
42420;SDS011;28063;48.140;11.588;2022-08-19T06:59:27;11.55;;;10.05;;
42420;SDS011;28063;48.140;11.588;2022-08-19T07:01:58;13.80;;;12.38;;
42420;SDS011;28063;48.140;11.588;2022-08-19T07:04:28;11.38;;;10.27;;
42420;SDS011;28063;48.140;11.588;2022-08-19T07:07:13;12.52;;;10.88;;
42420;SDS011;28063;48.140;11.588;2022-08-19T07:09:41;11.07;;;9.98;;
42420;SDS011;28063;48.140;11.588;2022-08-19T07:12:08;10.80;;;9.75;;
42420;SDS011;28063;48.140;11.588;2022-08-19T07:14:37;10.75;;;9.50;;
42420;SDS011;28063;48.140;11.588;2022-08-19T07:17:07;10.25;;;9.25;;
42420;SDS011;28063;48.140;11.588;2022-08-19T07:19:35;10.05;;;8.77;;
42420;SDS011;28063;48.140;11.588;2022-08-19T07:22:03;13.95;;;12.45;;
42420;SDS011;28063;48.140;11.588;2022-08-19T07:24:44;17.17;;;13.52;;
42420;SDS011;28063;48.140;11.588;2022-08-19T07:27:09;14.27;;;12.75;;
42420;SDS011;28063;48.140;11.588;2022-08-19T07:32:20;14.73;;;13.23;;
42420;SDS011;28063;48.140;11.588;2022-08-19T07:34:46;14.57;;;13.10;;
42420;SDS011;28063;48.140;11.588;2022-08-19T07:37:11;12.43;;;11.15;;
42420;SDS011;28063;48.140;11.588;2022-08-19T07:39:39;12.55;;;11.25;;
42420;SDS011;28063;48.140;11.588;2022-08-19T07:42:06;18.08;;;15.05;;
42420;SDS011;28063;48.140;11.588;2022-08-19T07:44:35;17.15;;;13.95;;
42420;SDS011;28063;48.140;11.588;2022-08-19T07:47:02;14.98;;;13.43;;
42420;SDS011;28063;48.140;11.588;2022-08-19T07:49:34;14.65;;;12.68;;
42420;SDS011;28063;48.140;11.588;2022-08-19T07:52:02;20.83;;;15.88;;
42420;SDS011;28063;48.140;11.588;2022-08-19T07:54:33;13.65;;;12.25;;
42420;SDS011;28063;48.140;11.588;2022-08-19T07:57:10;18.33;;;15.48;;
42420;SDS011;28063;48.140;11.588;2022-08-19T07:59:42;15.93;;;14.23;;
42420;SDS011;28063;48.140;11.588;2022-08-19T08:02:08;19.60;;;16.60;;
42420;SDS011;28063;48.140;11.588;2022-08-19T08:10:56;22.15;;;17.48;;
42420;SDS011;28063;48.140;11.588;2022-08-19T08:13:23;18.77;;;16.50;;
42420;SDS011;28063;48.140;11.588;2022-08-19T08:15:49;19.95;;;16.75;;
42420;SDS011;28063;48.140;11.588;2022-08-19T08:18:14;19.73;;;17.02;;
42420;SDS011;28063;48.140;11.588;2022-08-19T08:20:40;17.05;;;14.43;;
42420;SDS011;28063;48.140;11.588;2022-08-19T08:23:06;18.20;;;15.35;;
42420;SDS011;28063;48.140;11.588;2022-08-19T08:25:47;22.90;;;18.05;;
42420;SDS011;28063;48.140;11.588;2022-08-19T08:28:14;18.15;;;16.13;;
42420;SDS011;28063;48.140;11.588;2022-08-19T08:30:40;23.58;;;18.50;;
42420;SDS011;28063;48.140;11.588;2022-08-19T08:33:07;17.08;;;15.27;;
42420;SDS011;28063;48.140;11.588;2022-08-19T08:35:33;22.17;;;16.63;;
42420;SDS011;28063;48.140;11.588;2022-08-19T08:37:59;14.00;;;12.52;;
42420;SDS011;28063;48.140;11.588;2022-08-19T08:42:56;18.48;;;14.68;;
42420;SDS011;28063;48.140;11.588;2022-08-19T08:45:30;16.80;;;14.27;;
42420;SDS011;28063;48.140;11.588;2022-08-19T08:48:02;12.93;;;11.50;;
42420;SDS011;28063;48.140;11.588;2022-08-19T08:54:19;13.50;;;12.10;;
42420;SDS011;28063;48.140;11.588;2022-08-19T09:03:26;16.08;;;12.05;;
42420;SDS011;28063;48.140;11.588;2022-08-19T09:15:43;16.20;;;13.38;;
42420;SDS011;28063;48.140;11.588;2022-08-19T09:18:14;16.30;;;14.70;;
42420;SDS011;28063;48.140;11.588;2022-08-19T09:20:41;18.40;;;15.70;;
42420;SDS011;28063;48.140;11.588;2022-08-19T09:23:50;15.05;;;12.93;;
42420;SDS011;28063;48.140;11.588;2022-08-19T09:26:59;14.75;;;13.20;;
42420;SDS011;28063;48.140;11.588;2022-08-19T09:29:26;14.48;;;12.98;;
42420;SDS011;28063;48.140;11.588;2022-08-19T09:31:51;14.20;;;12.65;;
42420;SDS011;28063;48.140;11.588;2022-08-19T09:34:17;12.35;;;10.60;;
42420;SDS011;28063;48.140;11.588;2022-08-19T09:36:44;14.68;;;11.85;;
42420;SDS011;28063;48.140;11.588;2022-08-19T09:39:10;16.05;;;11.75;;
42420;SDS011;28063;48.140;11.588;2022-08-19T09:41:36;14.35;;;12.43;;
42420;SDS011;28063;48.140;11.588;2022-08-19T09:44:02;13.05;;;11.68;;
42420;SDS011;28063;48.140;11.588;2022-08-19T09:46:28;12.40;;;11.20;;
42420;SDS011;28063;48.140;11.588;2022-08-19T09:48:57;14.40;;;13.00;;
42420;SDS011;28063;48.140;11.588;2022-08-19T09:51:25;12.90;;;11.60;;
42420;SDS011;28063;48.140;11.588;2022-08-19T09:53:53;14.13;;;12.50;;
42420;SDS011;28063;48.140;11.588;2022-08-19T09:56:23;18.88;;;15.05;;
42420;SDS011;28063;48.140;11.588;2022-08-19T09:58:49;14.80;;;12.48;;
42420;SDS011;28063;48.140;11.588;2022-08-19T10:01:16;17.05;;;14.45;;
42420;SDS011;28063;48.140;11.588;2022-08-19T10:03:47;14.93;;;13.32;;
42420;SDS011;28063;48.140;11.588;2022-08-19T10:06:14;16.67;;;14.88;;
42420;SDS011;28063;48.140;11.588;2022-08-19T10:08:41;13.88;;;12.52;;
42420;SDS011;28063;48.140;11.588;2022-08-19T10:11:07;13.88;;;11.63;;
42420;SDS011;28063;48.140;11.588;2022-08-19T10:13:34;13.70;;;10.70;;
42420;SDS011;28063;48.140;11.588;2022-08-19T10:16:08;11.35;;;9.88;;
42420;SDS011;28063;48.140;11.588;2022-08-19T10:18:35;17.17;;;15.38;;
42420;SDS011;28063;48.140;11.588;2022-08-19T10:21:04;14.88;;;13.38;;
42420;SDS011;28063;48.140;11.588;2022-08-19T10:23:34;13.90;;;12.48;;
42420;SDS011;28063;48.140;11.588;2022-08-19T10:26:07;10.32;;;9.38;;
42420;SDS011;28063;48.140;11.588;2022-08-19T10:28:34;8.85;;;8.00;;
42420;SDS011;28063;48.140;11.588;2022-08-19T10:31:05;11.35;;;10.15;;
42420;SDS011;28063;48.140;11.588;2022-08-19T10:33:32;10.52;;;9.18;;
42420;SDS011;28063;48.140;11.588;2022-08-19T10:35:59;11.73;;;10.27;;
42420;SDS011;28063;48.140;11.588;2022-08-19T10:38:25;12.48;;;11.20;;
42420;SDS011;28063;48.140;11.588;2022-08-19T10:40:51;11.00;;;9.88;;
42420;SDS011;28063;48.140;11.588;2022-08-19T10:43:18;10.30;;;9.05;;
42420;SDS011;28063;48.140;11.588;2022-08-19T10:45:48;10.70;;;9.60;;
42420;SDS011;28063;48.140;11.588;2022-08-19T10:48:16;9.57;;;8.65;;
42420;SDS011;28063;48.140;11.588;2022-08-19T10:50:42;9.88;;;8.80;;
42420;SDS011;28063;48.140;11.588;2022-08-19T10:53:26;10.80;;;9.63;;
42420;SDS011;28063;48.140;11.588;2022-08-19T10:55:52;8.38;;;7.57;;
42420;SDS011;28063;48.140;11.588;2022-08-19T10:58:36;10.82;;;9.73;;
42420;SDS011;28063;48.140;11.588;2022-08-19T11:01:01;10.55;;;9.55;;
42420;SDS011;28063;48.140;11.588;2022-08-19T11:03:27;10.10;;;9.10;;
42420;SDS011;28063;48.140;11.588;2022-08-19T11:06:01;13.50;;;10.77;;
42420;SDS011;28063;48.140;11.588;2022-08-19T11:08:29;12.85;;;11.55;;
42420;SDS011;28063;48.140;11.588;2022-08-19T11:10:57;12.63;;;11.40;;
42420;SDS011;28063;48.140;11.588;2022-08-19T11:13:34;13.15;;;11.23;;
42420;SDS011;28063;48.140;11.588;2022-08-19T11:16:07;13.18;;;11.85;;
42420;SDS011;28063;48.140;11.588;2022-08-19T11:18:42;12.00;;;10.80;;
42420;SDS011;28063;48.140;11.588;2022-08-19T11:23:36;10.75;;;9.68;;
42420;SDS011;28063;48.140;11.588;2022-08-19T11:26:02;9.27;;;8.38;;
42420;SDS011;28063;48.140;11.588;2022-08-19T11:28:28;10.07;;;9.10;;
42420;SDS011;28063;48.140;11.588;2022-08-19T11:30:54;11.82;;;10.63;;
42420;SDS011;28063;48.140;11.588;2022-08-19T11:33:19;10.82;;;9.82;;
42420;SDS011;28063;48.140;11.588;2022-08-19T11:35:45;9.85;;;8.88;;
42420;SDS011;28063;48.140;11.588;2022-08-19T11:38:11;7.75;;;6.63;;
42420;SDS011;28063;48.140;11.588;2022-08-19T11:40:37;7.78;;;7.07;;
42420;SDS011;28063;48.140;11.588;2022-08-19T11:43:02;6.63;;;6.03;;
42420;SDS011;28063;48.140;11.588;2022-08-19T11:45:29;6.68;;;6.03;;
42420;SDS011;28063;48.140;11.588;2022-08-19T11:47:55;5.57;;;5.07;;
42420;SDS011;28063;48.140;11.588;2022-08-19T11:50:22;4.53;;;4.20;;
42420;SDS011;28063;48.140;11.588;2022-08-19T11:52:48;5.13;;;4.63;;
42420;SDS011;28063;48.140;11.588;2022-08-19T11:55:14;4.90;;;4.50;;
42420;SDS011;28063;48.140;11.588;2022-08-19T11:57:40;4.28;;;3.92;;
42420;SDS011;28063;48.140;11.588;2022-08-19T12:00:08;3.70;;;3.40;;
42420;SDS011;28063;48.140;11.588;2022-08-19T12:02:37;3.15;;;2.90;;
42420;SDS011;28063;48.140;11.588;2022-08-19T12:05:03;3.17;;;2.80;;
42420;SDS011;28063;48.140;11.588;2022-08-19T12:07:29;3.67;;;2.80;;
42420;SDS011;28063;48.140;11.588;2022-08-19T12:09:58;2.90;;;2.50;;
42420;SDS011;28063;48.140;11.588;2022-08-19T12:12:24;2.50;;;2.40;;
42420;SDS011;28063;48.140;11.588;2022-08-19T12:14:51;2.15;;;1.90;;
42420;SDS011;28063;48.140;11.588;2022-08-19T12:17:22;2.13;;;1.88;;
42420;SDS011;28063;48.140;11.588;2022-08-19T12:19:48;4.03;;;2.28;;
42420;SDS011;28063;48.140;11.588;2022-08-19T12:22:14;2.00;;;1.80;;
42420;SDS011;28063;48.140;11.588;2022-08-19T12:24:40;2.00;;;1.90;;
42420;SDS011;28063;48.140;11.588;2022-08-19T12:27:05;1.45;;;1.38;;
42420;SDS011;28063;48.140;11.588;2022-08-19T12:29:31;1.40;;;1.38;;
42420;SDS011;28063;48.140;11.588;2022-08-19T12:31:57;1.58;;;1.40;;
42420;SDS011;28063;48.140;11.588;2022-08-19T12:34:30;1.25;;;1.20;;
42420;SDS011;28063;48.140;11.588;2022-08-19T12:36:57;0.95;;;0.95;;
42420;SDS011;28063;48.140;11.588;2022-08-19T12:39:25;0.98;;;0.98;;
42420;SDS011;28063;48.140;11.588;2022-08-19T12:41:51;1.10;;;1.00;;
42420;SDS011;28063;48.140;11.588;2022-08-19T12:44:17;2.40;;;1.42;;
42420;SDS011;28063;48.140;11.588;2022-08-19T12:46:43;1.33;;;1.33;;
42420;SDS011;28063;48.140;11.588;2022-08-19T12:49:09;0.93;;;0.93;;
42420;SDS011;28063;48.140;11.588;2022-08-19T12:51:35;1.45;;;1.35;;
42420;SDS011;28063;48.140;11.588;2022-08-19T12:54:01;1.40;;;1.40;;
42420;SDS011;28063;48.140;11.588;2022-08-19T12:56:27;1.20;;;1.15;;
42420;SDS011;28063;48.140;11.588;2022-08-19T12:58:53;1.25;;;1.15;;
42420;SDS011;28063;48.140;11.588;2022-08-19T13:01:19;1.00;;;1.00;;
42420;SDS011;28063;48.140;11.588;2022-08-19T13:03:45;1.67;;;1.30;;
42420;SDS011;28063;48.140;11.588;2022-08-19T13:06:11;1.10;;;1.10;;
42420;SDS011;28063;48.140;11.588;2022-08-19T13:08:38;1.58;;;1.48;;
42420;SDS011;28063;48.140;11.588;2022-08-19T13:11:10;2.15;;;1.40;;
42420;SDS011;28063;48.140;11.588;2022-08-19T13:13:39;2.28;;;1.10;;
42420;SDS011;28063;48.140;11.588;2022-08-19T13:16:06;1.63;;;1.50;;
42420;SDS011;28063;48.140;11.588;2022-08-19T13:18:33;2.50;;;1.25;;
42420;SDS011;28063;48.140;11.588;2022-08-19T13:21:06;1.75;;;1.65;;
42420;SDS011;28063;48.140;11.588;2022-08-19T13:23:40;1.05;;;1.00;;
42420;SDS011;28063;48.140;11.588;2022-08-19T13:26:06;0.90;;;0.90;;
42420;SDS011;28063;48.140;11.588;2022-08-19T13:28:33;1.17;;;1.02;;
42420;SDS011;28063;48.140;11.588;2022-08-19T13:31:19;0.98;;;0.98;;
42420;SDS011;28063;48.140;11.588;2022-08-19T13:34:05;1.45;;;0.98;;
42420;SDS011;28063;48.140;11.588;2022-08-19T13:36:31;1.10;;;1.10;;
42420;SDS011;28063;48.140;11.588;2022-08-19T13:38:58;0.95;;;0.95;;
42420;SDS011;28063;48.140;11.588;2022-08-19T13:41:24;1.00;;;1.00;;
42420;SDS011;28063;48.140;11.588;2022-08-19T13:43:50;1.23;;;1.00;;
42420;SDS011;28063;48.140;11.588;2022-08-19T13:46:16;2.28;;;1.10;;
42420;SDS011;28063;48.140;11.588;2022-08-19T13:48:42;1.75;;;1.65;;
42420;SDS011;28063;48.140;11.588;2022-08-19T13:51:07;2.00;;;1.52;;
42420;SDS011;28063;48.140;11.588;2022-08-19T13:53:37;1.90;;;1.80;;
42420;SDS011;28063;48.140;11.588;2022-08-19T13:56:07;1.75;;;1.65;;
42420;SDS011;28063;48.140;11.588;2022-08-19T13:58:35;1.50;;;1.40;;
42420;SDS011;28063;48.140;11.588;2022-08-19T14:01:01;2.08;;;1.98;;
42420;SDS011;28063;48.140;11.588;2022-08-19T14:03:26;2.05;;;1.95;;
42420;SDS011;28063;48.140;11.588;2022-08-19T14:05:52;1.88;;;1.77;;
42420;SDS011;28063;48.140;11.588;2022-08-19T14:08:18;1.98;;;1.88;;
42420;SDS011;28063;48.140;11.588;2022-08-19T14:10:44;2.00;;;1.75;;
42420;SDS011;28063;48.140;11.588;2022-08-19T14:13:12;1.60;;;1.50;;
42420;SDS011;28063;48.140;11.588;2022-08-19T14:15:43;2.08;;;1.98;;
42420;SDS011;28063;48.140;11.588;2022-08-19T14:18:10;2.30;;;2.20;;
42420;SDS011;28063;48.140;11.588;2022-08-19T14:20:36;2.38;;;1.92;;
42420;SDS011;28063;48.140;11.588;2022-08-19T14:23:02;2.40;;;2.20;;
42420;SDS011;28063;48.140;11.588;2022-08-19T14:25:30;2.33;;;2.20;;
42420;SDS011;28063;48.140;11.588;2022-08-19T14:27:56;1.85;;;1.75;;
42420;SDS011;28063;48.140;11.588;2022-08-19T14:30:24;2.20;;;2.00;;
42420;SDS011;28063;48.140;11.588;2022-08-19T14:32:56;2.97;;;2.78;;
42420;SDS011;28063;48.140;11.588;2022-08-19T14:35:28;2.15;;;2.05;;
42420;SDS011;28063;48.140;11.588;2022-08-19T14:37:55;2.78;;;2.58;;
42420;SDS011;28063;48.140;11.588;2022-08-19T14:40:23;3.97;;;3.03;;
42420;SDS011;28063;48.140;11.588;2022-08-19T14:42:52;2.95;;;2.75;;
42420;SDS011;28063;48.140;11.588;2022-08-19T14:45:24;2.70;;;2.50;;
42420;SDS011;28063;48.140;11.588;2022-08-19T14:47:52;2.17;;;2.00;;
42420;SDS011;28063;48.140;11.588;2022-08-19T14:50:18;2.15;;;2.05;;
42420;SDS011;28063;48.140;11.588;2022-08-19T14:52:45;2.85;;;2.65;;
42420;SDS011;28063;48.140;11.588;2022-08-19T14:55:12;2.30;;;2.10;;
42420;SDS011;28063;48.140;11.588;2022-08-19T14:57:42;1.77;;;1.67;;
42420;SDS011;28063;48.140;11.588;2022-08-19T15:00:08;2.60;;;2.40;;
42420;SDS011;28063;48.140;11.588;2022-08-19T15:02:38;2.42;;;2.22;;
42420;SDS011;28063;48.140;11.588;2022-08-19T15:05:04;2.53;;;2.30;;
42420;SDS011;28063;48.140;11.588;2022-08-19T15:07:30;1.98;;;1.88;;
42420;SDS011;28063;48.140;11.588;2022-08-19T15:09:56;2.30;;;2.20;;
42420;SDS011;28063;48.140;11.588;2022-08-19T15:12:22;2.55;;;2.35;;
42420;SDS011;28063;48.140;11.588;2022-08-19T15:14:48;2.15;;;2.05;;
42420;SDS011;28063;48.140;11.588;2022-08-19T15:17:18;1.98;;;1.88;;
42420;SDS011;28063;48.140;11.588;2022-08-19T15:19:44;2.35;;;2.25;;
42420;SDS011;28063;48.140;11.588;2022-08-19T15:22:10;3.75;;;2.30;;
42420;SDS011;28063;48.140;11.588;2022-08-19T15:24:36;3.90;;;2.60;;
42420;SDS011;28063;48.140;11.588;2022-08-19T15:29:42;3.67;;;2.83;;
42420;SDS011;28063;48.140;11.588;2022-08-19T15:32:10;3.33;;;3.03;;
42420;SDS011;28063;48.140;11.588;2022-08-19T15:34:36;4.03;;;3.65;;
42420;SDS011;28063;48.140;11.588;2022-08-19T15:37:02;3.72;;;2.60;;
42420;SDS011;28063;48.140;11.588;2022-08-19T15:39:30;3.92;;;3.53;;
42420;SDS011;28063;48.140;11.588;2022-08-19T15:41:56;5.75;;;4.32;;
42420;SDS011;28063;48.140;11.588;2022-08-19T15:44:24;4.30;;;3.90;;
42420;SDS011;28063;48.140;11.588;2022-08-19T15:46:50;5.72;;;5.22;;
42420;SDS011;28063;48.140;11.588;2022-08-19T15:49:16;6.18;;;5.68;;
42420;SDS011;28063;48.140;11.588;2022-08-19T15:51:44;7.05;;;6.35;;
42420;SDS011;28063;48.140;11.588;2022-08-19T15:54:12;7.30;;;6.15;;
42420;SDS011;28063;48.140;11.588;2022-08-19T15:56:41;7.65;;;6.50;;
42420;SDS011;28063;48.140;11.588;2022-08-19T15:59:26;6.82;;;5.97;;
42420;SDS011;28063;48.140;11.588;2022-08-19T16:02:10;7.55;;;6.85;;
42420;SDS011;28063;48.140;11.588;2022-08-19T16:04:55;7.32;;;6.63;;
42420;SDS011;28063;48.140;11.588;2022-08-19T16:07:39;7.10;;;6.50;;
42420;SDS011;28063;48.140;11.588;2022-08-19T16:10:05;7.75;;;6.88;;
42420;SDS011;28063;48.140;11.588;2022-08-19T16:12:32;8.10;;;7.30;;
42420;SDS011;28063;48.140;11.588;2022-08-19T16:14:57;8.98;;;7.57;;
42420;SDS011;28063;48.140;11.588;2022-08-19T16:17:23;7.85;;;7.15;;
42420;SDS011;28063;48.140;11.588;2022-08-19T16:19:49;8.68;;;7.30;;
42420;SDS011;28063;48.140;11.588;2022-08-19T16:22:15;8.30;;;7.50;;
42420;SDS011;28063;48.140;11.588;2022-08-19T16:24:41;6.70;;;6.10;;
42420;SDS011;28063;48.140;11.588;2022-08-19T16:27:07;6.85;;;6.20;;
42420;SDS011;28063;48.140;11.588;2022-08-19T16:29:33;6.30;;;5.70;;
42420;SDS011;28063;48.140;11.588;2022-08-19T16:32:03;5.13;;;4.63;;
42420;SDS011;28063;48.140;11.588;2022-08-19T16:38:07;5.10;;;4.60;;
42420;SDS011;28063;48.140;11.588;2022-08-19T16:40:34;5.85;;;4.60;;
42420;SDS011;28063;48.140;11.588;2022-08-19T16:43:00;4.65;;;4.25;;
42420;SDS011;28063;48.140;11.588;2022-08-19T16:45:27;4.63;;;4.25;;
42420;SDS011;28063;48.140;11.588;2022-08-19T16:47:53;4.05;;;3.75;;
42420;SDS011;28063;48.140;11.588;2022-08-19T16:50:21;3.85;;;3.55;;
42420;SDS011;28063;48.140;11.588;2022-08-19T16:52:46;4.57;;;4.20;;
42420;SDS011;28063;48.140;11.588;2022-08-19T16:55:12;4.80;;;4.20;;
42420;SDS011;28063;48.140;11.588;2022-08-19T16:57:38;4.53;;;4.15;;
42420;SDS011;28063;48.140;11.588;2022-08-19T17:00:05;4.00;;;3.70;;
42420;SDS011;28063;48.140;11.588;2022-08-19T17:02:37;4.32;;;3.80;;
42420;SDS011;28063;48.140;11.588;2022-08-19T17:05:04;3.80;;;3.50;;
42420;SDS011;28063;48.140;11.588;2022-08-19T17:07:32;4.50;;;4.10;;
42420;SDS011;28063;48.140;11.588;2022-08-19T17:09:58;3.88;;;3.47;;
42420;SDS011;28063;48.140;11.588;2022-08-19T17:12:29;4.53;;;4.13;;
42420;SDS011;28063;48.140;11.588;2022-08-19T17:14:55;4.40;;;3.50;;
42420;SDS011;28063;48.140;11.588;2022-08-19T17:17:21;3.78;;;3.47;;
42420;SDS011;28063;48.140;11.588;2022-08-19T17:19:47;4.82;;;4.43;;